sensor_id;sensor_type;location;lat;lon;timestamp;P1;durP1;ratioP1;P2;durP2;ratioP2
32200;SDS011;18701;45.588;5.288;2023-04-01T00:00:17;11.65;;;1.08;;
32200;SDS011;18701;45.588;5.288;2023-04-01T00:02:43;6.78;;;0.88;;
32200;SDS011;18701;45.588;5.288;2023-04-01T00:05:09;6.43;;;1.00;;
32200;SDS011;18701;45.588;5.288;2023-04-01T00:07:35;7.80;;;0.88;;
32200;SDS011;18701;45.588;5.288;2023-04-01T00:10:02;10.02;;;1.27;;
32200;SDS011;18701;45.588;5.288;2023-04-01T00:12:28;6.93;;;0.80;;
32200;SDS011;18701;45.588;5.288;2023-04-01T00:14:54;9.50;;;1.15;;
32200;SDS011;18701;45.588;5.288;2023-04-01T00:17:23;9.32;;;0.98;;
32200;SDS011;18701;45.588;5.288;2023-04-01T00:19:49;12.52;;;1.17;;
32200;SDS011;18701;45.588;5.288;2023-04-01T00:22:14;9.73;;;0.93;;
32200;SDS011;18701;45.588;5.288;2023-04-01T00:24:40;10.60;;;1.17;;
32200;SDS011;18701;45.588;5.288;2023-04-01T00:27:06;11.95;;;1.08;;
32200;SDS011;18701;45.588;5.288;2023-04-01T00:29:33;9.57;;;1.67;;
32200;SDS011;18701;45.588;5.288;2023-04-01T00:31:59;10.10;;;1.10;;
32200;SDS011;18701;45.588;5.288;2023-04-01T00:34:24;7.50;;;0.90;;
32200;SDS011;18701;45.588;5.288;2023-04-01T00:36:50;10.43;;;0.90;;
32200;SDS011;18701;45.588;5.288;2023-04-01T00:39:22;7.63;;;0.63;;
32200;SDS011;18701;45.588;5.288;2023-04-01T00:41:47;12.15;;;1.40;;
32200;SDS011;18701;45.588;5.288;2023-04-01T00:44:17;6.05;;;0.82;;
32200;SDS011;18701;45.588;5.288;2023-04-01T00:46:48;8.98;;;0.98;;
32200;SDS011;18701;45.588;5.288;2023-04-01T00:49:14;8.18;;;1.15;;
32200;SDS011;18701;45.588;5.288;2023-04-01T00:51:43;5.50;;;0.98;;
32200;SDS011;18701;45.588;5.288;2023-04-01T00:54:12;8.52;;;0.95;;
32200;SDS011;18701;45.588;5.288;2023-04-01T00:59:26;7.30;;;0.88;;
32200;SDS011;18701;45.588;5.288;2023-04-01T01:01:56;7.18;;;0.93;;
32200;SDS011;18701;45.588;5.288;2023-04-01T01:04:25;9.32;;;1.08;;
32200;SDS011;18701;45.588;5.288;2023-04-01T01:09:33;8.70;;;1.30;;
32200;SDS011;18701;45.588;5.288;2023-04-01T01:12:18;9.15;;;1.58;;
32200;SDS011;18701;45.588;5.288;2023-04-01T01:14:55;11.93;;;1.00;;
32200;SDS011;18701;45.588;5.288;2023-04-01T01:20:19;9.50;;;0.65;;
32200;SDS011;18701;45.588;5.288;2023-04-01T01:23:18;15.27;;;1.45;;
32200;SDS011;18701;45.588;5.288;2023-04-01T01:37:14;9.32;;;0.88;;
32200;SDS011;18701;45.588;5.288;2023-04-01T01:39:42;12.27;;;1.42;;
32200;SDS011;18701;45.588;5.288;2023-04-01T01:42:11;11.40;;;1.33;;
32200;SDS011;18701;45.588;5.288;2023-04-01T01:44:40;13.63;;;1.38;;
32200;SDS011;18701;45.588;5.288;2023-04-01T01:47:09;5.95;;;0.75;;
32200;SDS011;18701;45.588;5.288;2023-04-01T01:49:35;5.78;;;1.13;;
32200;SDS011;18701;45.588;5.288;2023-04-01T01:52:03;8.02;;;1.13;;
32200;SDS011;18701;45.588;5.288;2023-04-01T01:54:29;10.77;;;1.73;;
32200;SDS011;18701;45.588;5.288;2023-04-01T01:56:57;7.65;;;0.80;;
32200;SDS011;18701;45.588;5.288;2023-04-01T01:59:35;6.68;;;1.30;;
32200;SDS011;18701;45.588;5.288;2023-04-01T02:02:04;6.75;;;0.68;;
32200;SDS011;18701;45.588;5.288;2023-04-01T02:04:34;9.43;;;0.93;;
32200;SDS011;18701;45.588;5.288;2023-04-01T02:07:08;12.45;;;1.17;;
32200;SDS011;18701;45.588;5.288;2023-04-01T02:09:40;8.70;;;1.05;;
32200;SDS011;18701;45.588;5.288;2023-04-01T02:12:08;7.35;;;0.75;;
32200;SDS011;18701;45.588;5.288;2023-04-01T02:14:54;6.78;;;1.10;;
32200;SDS011;18701;45.588;5.288;2023-04-01T02:17:27;8.63;;;0.82;;
32200;SDS011;18701;45.588;5.288;2023-04-01T02:22:33;14.57;;;1.05;;
32200;SDS011;18701;45.588;5.288;2023-04-01T02:25:06;7.85;;;1.08;;
32200;SDS011;18701;45.588;5.288;2023-04-01T02:27:34;10.73;;;0.93;;
32200;SDS011;18701;45.588;5.288;2023-04-01T02:29:59;5.20;;;0.77;;
32200;SDS011;18701;45.588;5.288;2023-04-01T02:32:25;6.55;;;1.00;;
32200;SDS011;18701;45.588;5.288;2023-04-01T02:34:52;3.97;;;0.50;;
32200;SDS011;18701;45.588;5.288;2023-04-01T02:37:19;8.18;;;0.93;;
32200;SDS011;18701;45.588;5.288;2023-04-01T02:39:45;5.65;;;0.82;;
32200;SDS011;18701;45.588;5.288;2023-04-01T02:42:10;11.73;;;0.80;;
32200;SDS011;18701;45.588;5.288;2023-04-01T02:44:36;5.55;;;0.60;;
32200;SDS011;18701;45.588;5.288;2023-04-01T02:47:01;8.63;;;0.80;;
32200;SDS011;18701;45.588;5.288;2023-04-01T02:49:28;6.85;;;0.73;;
32200;SDS011;18701;45.588;5.288;2023-04-01T02:51:53;5.35;;;0.70;;
32200;SDS011;18701;45.588;5.288;2023-04-01T02:54:19;4.90;;;0.63;;
32200;SDS011;18701;45.588;5.288;2023-04-01T02:56:45;4.95;;;0.85;;
32200;SDS011;18701;45.588;5.288;2023-04-01T02:59:11;6.82;;;1.00;;
32200;SDS011;18701;45.588;5.288;2023-04-01T03:01:36;5.70;;;0.40;;
32200;SDS011;18701;45.588;5.288;2023-04-01T03:04:02;9.65;;;0.80;;
32200;SDS011;18701;45.588;5.288;2023-04-01T03:06:28;7.22;;;0.80;;
32200;SDS011;18701;45.588;5.288;2023-04-01T03:08:53;5.85;;;1.00;;
32200;SDS011;18701;45.588;5.288;2023-04-01T03:11:19;4.72;;;0.50;;
32200;SDS011;18701;45.588;5.288;2023-04-01T03:13:46;8.27;;;0.63;;
32200;SDS011;18701;45.588;5.288;2023-04-01T03:16:12;7.63;;;0.60;;
32200;SDS011;18701;45.588;5.288;2023-04-01T03:18:37;3.55;;;0.32;;
32200;SDS011;18701;45.588;5.288;2023-04-01T03:21:16;3.50;;;0.20;;
32200;SDS011;18701;45.588;5.288;2023-04-01T03:23:47;7.82;;;0.60;;
32200;SDS011;18701;45.588;5.288;2023-04-01T03:26:12;6.43;;;0.38;;
32200;SDS011;18701;45.588;5.288;2023-04-01T03:28:38;5.22;;;0.60;;
32200;SDS011;18701;45.588;5.288;2023-04-01T03:31:04;5.45;;;0.47;;
32200;SDS011;18701;45.588;5.288;2023-04-01T03:33:30;6.43;;;0.47;;
32200;SDS011;18701;45.588;5.288;2023-04-01T03:35:56;5.40;;;0.63;;
32200;SDS011;18701;45.588;5.288;2023-04-01T03:38:21;3.05;;;0.30;;
32200;SDS011;18701;45.588;5.288;2023-04-01T03:40:47;6.47;;;0.45;;
32200;SDS011;18701;45.588;5.288;2023-04-01T03:43:13;6.88;;;0.60;;
32200;SDS011;18701;45.588;5.288;2023-04-01T03:45:48;8.45;;;0.32;;
32200;SDS011;18701;45.588;5.288;2023-04-01T03:48:19;4.45;;;0.40;;
32200;SDS011;18701;45.588;5.288;2023-04-01T03:50:45;4.70;;;0.40;;
32200;SDS011;18701;45.588;5.288;2023-04-01T03:53:12;6.30;;;0.40;;
32200;SDS011;18701;45.588;5.288;2023-04-01T03:55:37;6.32;;;0.60;;
32200;SDS011;18701;45.588;5.288;2023-04-01T03:58:04;3.97;;;0.20;;
32200;SDS011;18701;45.588;5.288;2023-04-01T04:00:31;2.60;;;0.20;;
32200;SDS011;18701;45.588;5.288;2023-04-01T04:02:56;6.97;;;0.35;;
32200;SDS011;18701;45.588;5.288;2023-04-01T04:05:23;4.13;;;0.35;;
32200;SDS011;18701;45.588;5.288;2023-04-01T04:07:49;3.28;;;0.20;;
32200;SDS011;18701;45.588;5.288;2023-04-01T04:10:15;5.00;;;0.30;;
32200;SDS011;18701;45.588;5.288;2023-04-01T04:12:41;1.95;;;0.30;;
32200;SDS011;18701;45.588;5.288;2023-04-01T04:15:07;3.75;;;0.40;;
32200;SDS011;18701;45.588;5.288;2023-04-01T04:17:33;4.85;;;0.50;;
32200;SDS011;18701;45.588;5.288;2023-04-01T04:19:59;2.00;;;0.40;;
32200;SDS011;18701;45.588;5.288;2023-04-01T04:22:24;2.92;;;0.40;;
32200;SDS011;18701;45.588;5.288;2023-04-01T04:24:50;5.53;;;0.30;;
32200;SDS011;18701;45.588;5.288;2023-04-01T04:27:16;5.32;;;0.40;;
32200;SDS011;18701;45.588;5.288;2023-04-01T04:29:41;4.70;;;0.30;;
32200;SDS011;18701;45.588;5.288;2023-04-01T04:32:07;9.23;;;0.30;;
32200;SDS011;18701;45.588;5.288;2023-04-01T04:34:33;2.90;;;0.22;;
32200;SDS011;18701;45.588;5.288;2023-04-01T04:36:59;1.95;;;0.22;;
32200;SDS011;18701;45.588;5.288;2023-04-01T04:39:25;5.22;;;0.68;;
32200;SDS011;18701;45.588;5.288;2023-04-01T04:41:53;4.85;;;0.40;;
32200;SDS011;18701;45.588;5.288;2023-04-01T04:44:19;5.97;;;0.30;;
32200;SDS011;18701;45.588;5.288;2023-04-01T04:46:48;2.60;;;0.22;;
32200;SDS011;18701;45.588;5.288;2023-04-01T04:49:13;2.85;;;0.22;;
32200;SDS011;18701;45.588;5.288;2023-04-01T04:51:39;2.67;;;0.30;;
32200;SDS011;18701;45.588;5.288;2023-04-01T04:54:05;6.03;;;0.32;;
32200;SDS011;18701;45.588;5.288;2023-04-01T04:56:31;7.65;;;0.60;;
32200;SDS011;18701;45.588;5.288;2023-04-01T04:58:57;12.57;;;0.30;;
32200;SDS011;18701;45.588;5.288;2023-04-01T05:01:23;4.90;;;0.40;;
32200;SDS011;18701;45.588;5.288;2023-04-01T05:03:49;6.85;;;0.40;;
32200;SDS011;18701;45.588;5.288;2023-04-01T05:06:15;6.97;;;0.50;;
32200;SDS011;18701;45.588;5.288;2023-04-01T05:08:42;3.85;;;0.25;;
32200;SDS011;18701;45.588;5.288;2023-04-01T05:11:10;3.67;;;0.30;;
32200;SDS011;18701;45.588;5.288;2023-04-01T05:13:38;5.32;;;0.45;;
32200;SDS011;18701;45.588;5.288;2023-04-01T05:16:07;7.38;;;0.47;;
32200;SDS011;18701;45.588;5.288;2023-04-01T05:18:34;3.38;;;0.47;;
32200;SDS011;18701;45.588;5.288;2023-04-01T05:20:59;6.70;;;0.40;;
32200;SDS011;18701;45.588;5.288;2023-04-01T05:23:25;4.72;;;0.30;;
32200;SDS011;18701;45.588;5.288;2023-04-01T05:25:53;3.55;;;0.20;;
32200;SDS011;18701;45.588;5.288;2023-04-01T05:28:19;5.22;;;0.50;;
32200;SDS011;18701;45.588;5.288;2023-04-01T05:30:48;6.38;;;0.38;;
32200;SDS011;18701;45.588;5.288;2023-04-01T05:33:13;6.32;;;0.30;;
32200;SDS011;18701;45.588;5.288;2023-04-01T05:35:39;4.32;;;0.47;;
32200;SDS011;18701;45.588;5.288;2023-04-01T05:38:06;3.85;;;0.25;;
32200;SDS011;18701;45.588;5.288;2023-04-01T05:40:32;5.13;;;0.38;;
32200;SDS011;18701;45.588;5.288;2023-04-01T05:42:58;4.00;;;0.30;;
32200;SDS011;18701;45.588;5.288;2023-04-01T05:45:25;5.65;;;0.28;;
32200;SDS011;18701;45.588;5.288;2023-04-01T05:47:51;7.60;;;0.45;;
32200;SDS011;18701;45.588;5.288;2023-04-01T05:50:17;11.95;;;0.77;;
32200;SDS011;18701;45.588;5.288;2023-04-01T05:52:43;4.15;;;0.45;;
32200;SDS011;18701;45.588;5.288;2023-04-01T05:55:09;7.90;;;0.55;;
32200;SDS011;18701;45.588;5.288;2023-04-01T05:57:35;5.90;;;0.40;;
32200;SDS011;18701;45.588;5.288;2023-04-01T06:00:01;4.55;;;0.60;;
32200;SDS011;18701;45.588;5.288;2023-04-01T06:02:28;6.63;;;0.50;;
32200;SDS011;18701;45.588;5.288;2023-04-01T06:04:54;2.58;;;0.20;;
32200;SDS011;18701;45.588;5.288;2023-04-01T06:07:38;2.17;;;0.22;;
32200;SDS011;18701;45.588;5.288;2023-04-01T06:10:09;5.85;;;1.50;;
32200;SDS011;18701;45.588;5.288;2023-04-01T06:12:45;3.38;;;0.82;;
32200;SDS011;18701;45.588;5.288;2023-04-01T06:15:40;2.90;;;0.20;;
32200;SDS011;18701;45.588;5.288;2023-04-01T06:18:36;6.65;;;0.40;;
32200;SDS011;18701;45.588;5.288;2023-04-01T06:21:34;7.85;;;1.65;;
32200;SDS011;18701;45.588;5.288;2023-04-01T06:42:35;5.07;;;0.50;;
32200;SDS011;18701;45.588;5.288;2023-04-01T06:45:18;4.93;;;1.00;;
32200;SDS011;18701;45.588;5.288;2023-04-01T06:55:42;4.38;;;1.08;;
32200;SDS011;18701;45.588;5.288;2023-04-01T06:58:24;5.63;;;1.08;;
32200;SDS011;18701;45.588;5.288;2023-04-01T07:00:56;11.73;;;2.38;;
32200;SDS011;18701;45.588;5.288;2023-04-01T07:03:33;8.73;;;1.45;;
32200;SDS011;18701;45.588;5.288;2023-04-01T07:06:14;9.10;;;4.18;;
32200;SDS011;18701;45.588;5.288;2023-04-01T07:08:49;6.15;;;2.00;;
32200;SDS011;18701;45.588;5.288;2023-04-01T07:11:22;6.00;;;0.70;;
32200;SDS011;18701;45.588;5.288;2023-04-01T07:19:05;6.82;;;2.60;;
32200;SDS011;18701;45.588;5.288;2023-04-01T07:21:54;4.05;;;0.70;;
32200;SDS011;18701;45.588;5.288;2023-04-01T07:24:26;9.50;;;3.38;;
32200;SDS011;18701;45.588;5.288;2023-04-01T07:26:55;4.57;;;1.35;;
32200;SDS011;18701;45.588;5.288;2023-04-01T07:29:22;8.77;;;1.80;;
32200;SDS011;18701;45.588;5.288;2023-04-01T07:50:27;7.20;;;1.60;;
32200;SDS011;18701;45.588;5.288;2023-04-01T07:55:53;5.43;;;0.38;;
32200;SDS011;18701;45.588;5.288;2023-04-01T07:58:45;8.75;;;0.43;;
32200;SDS011;18701;45.588;5.288;2023-04-01T08:06:44;7.80;;;0.60;;
32200;SDS011;18701;45.588;5.288;2023-04-01T08:22:30;5.53;;;0.22;;
32200;SDS011;18701;45.588;5.288;2023-04-01T08:25:10;6.45;;;0.60;;
32200;SDS011;18701;45.588;5.288;2023-04-01T08:27:41;4.47;;;0.50;;
32200;SDS011;18701;45.588;5.288;2023-04-01T08:30:19;2.50;;;0.30;;
32200;SDS011;18701;45.588;5.288;2023-04-01T08:32:58;1.73;;;0.10;;
32200;SDS011;18701;45.588;5.288;2023-04-01T08:35:31;4.80;;;0.35;;
32200;SDS011;18701;45.588;5.288;2023-04-01T08:38:05;4.95;;;0.45;;
32200;SDS011;18701;45.588;5.288;2023-04-01T08:43:27;4.82;;;0.30;;
32200;SDS011;18701;45.588;5.288;2023-04-01T08:46:25;1.88;;;0.13;;
32200;SDS011;18701;45.588;5.288;2023-04-01T08:48:57;3.17;;;0.35;;
32200;SDS011;18701;45.588;5.288;2023-04-01T09:06:17;2.90;;;0.20;;
32200;SDS011;18701;45.588;5.288;2023-04-01T09:12:13;3.25;;;0.25;;
32200;SDS011;18701;45.588;5.288;2023-04-01T09:14:53;3.15;;;0.20;;
32200;SDS011;18701;45.588;5.288;2023-04-01T09:25:53;1.77;;;0.30;;
32200;SDS011;18701;45.588;5.288;2023-04-01T09:28:50;3.22;;;0.30;;
32200;SDS011;18701;45.588;5.288;2023-04-01T09:42:41;0.93;;;0.10;;
32200;SDS011;18701;45.588;5.288;2023-04-01T09:50:44;1.45;;;0.25;;
32200;SDS011;18701;45.588;5.288;2023-04-01T09:53:17;2.28;;;0.10;;
32200;SDS011;18701;45.588;5.288;2023-04-01T10:30:18;4.15;;;0.28;;
32200;SDS011;18701;45.588;5.288;2023-04-01T10:42:06;0.75;;;0.10;;
32200;SDS011;18701;45.588;5.288;2023-04-01T10:52:38;0.88;;;0.10;;
32200;SDS011;18701;45.588;5.288;2023-04-01T11:25:16;2.28;;;0.22;;
32200;SDS011;18701;45.588;5.288;2023-04-01T11:33:21;1.60;;;0.10;;
32200;SDS011;18701;45.588;5.288;2023-04-01T11:38:38;0.73;;;0.20;;
32200;SDS011;18701;45.588;5.288;2023-04-01T11:52:15;1.77;;;0.28;;
32200;SDS011;18701;45.588;5.288;2023-04-01T12:12:25;2.70;;;0.20;;
32200;SDS011;18701;45.588;5.288;2023-04-01T12:18:00;1.00;;;0.10;;
32200;SDS011;18701;45.588;5.288;2023-04-01T12:20:38;2.22;;;0.20;;
32200;SDS011;18701;45.588;5.288;2023-04-01T12:40:50;1.60;;;0.20;;
32200;SDS011;18701;45.588;5.288;2023-04-01T12:57:50;1.20;;;0.10;;
32200;SDS011;18701;45.588;5.288;2023-04-01T13:09:03;1.38;;;0.10;;
32200;SDS011;18701;45.588;5.288;2023-04-01T13:20:32;0.43;;;0.10;;
32200;SDS011;18701;45.588;5.288;2023-04-01T13:23:11;0.20;;;0.00;;
32200;SDS011;18701;45.588;5.288;2023-04-01T13:34:25;0.65;;;0.00;;
32200;SDS011;18701;45.588;5.288;2023-04-01T13:42:26;0.98;;;0.10;;
32200;SDS011;18701;45.588;5.288;2023-04-01T13:45:22;2.05;;;0.10;;
32200;SDS011;18701;45.588;5.288;2023-04-01T14:06:21;3.45;;;0.00;;
32200;SDS011;18701;45.588;5.288;2023-04-01T14:17:23;0.25;;;0.00;;
32200;SDS011;18701;45.588;5.288;2023-04-01T14:23:01;0.20;;;0.00;;
32200;SDS011;18701;45.588;5.288;2023-04-01T14:32:16;0.20;;;0.00;;
32200;SDS011;18701;45.588;5.288;2023-04-01T14:45:42;0.05;;;0.00;;
32200;SDS011;18701;45.588;5.288;2023-04-01T14:48:35;0.00;;;0.00;;
32200;SDS011;18701;45.588;5.288;2023-04-01T14:53:43;1.45;;;0.10;;
32200;SDS011;18701;45.588;5.288;2023-04-01T14:56:34;3.30;;;0.10;;
32200;SDS011;18701;45.588;5.288;2023-04-01T14:59:07;0.40;;;0.00;;
32200;SDS011;18701;45.588;5.288;2023-04-01T15:12:53;0.75;;;0.10;;
32200;SDS011;18701;45.588;5.288;2023-04-01T15:24:22;0.73;;;0.10;;
32200;SDS011;18701;45.588;5.288;2023-04-01T15:32:28;0.80;;;0.00;;
32200;SDS011;18701;45.588;5.288;2023-04-01T15:43:40;0.50;;;0.20;;
32200;SDS011;18701;45.588;5.288;2023-04-01T15:48:48;0.30;;;0.08;;
32200;SDS011;18701;45.588;5.288;2023-04-01T15:54:23;1.00;;;0.13;;
32200;SDS011;18701;45.588;5.288;2023-04-01T15:57:10;1.02;;;0.10;;
32200;SDS011;18701;45.588;5.288;2023-04-01T16:02:46;0.90;;;0.10;;
32200;SDS011;18701;45.588;5.288;2023-04-01T16:08:17;0.85;;;0.10;;
32200;SDS011;18701;45.588;5.288;2023-04-01T16:17:00;1.55;;;0.30;;
32200;SDS011;18701;45.588;5.288;2023-04-01T16:19:41;1.02;;;0.20;;
32200;SDS011;18701;45.588;5.288;2023-04-01T16:22:39;1.20;;;0.30;;
32200;SDS011;18701;45.588;5.288;2023-04-01T16:27:58;0.95;;;0.20;;
32200;SDS011;18701;45.588;5.288;2023-04-01T16:30:48;1.85;;;0.20;;
32200;SDS011;18701;45.588;5.288;2023-04-01T16:33:25;3.95;;;0.22;;
32200;SDS011;18701;45.588;5.288;2023-04-01T16:38:52;2.53;;;0.20;;
32200;SDS011;18701;45.588;5.288;2023-04-01T16:41:35;1.70;;;0.20;;
32200;SDS011;18701;45.588;5.288;2023-04-01T16:46:38;3.40;;;0.10;;
32200;SDS011;18701;45.588;5.288;2023-04-01T16:54:11;2.75;;;0.28;;
32200;SDS011;18701;45.588;5.288;2023-04-01T16:57:26;0.30;;;0.10;;
32200;SDS011;18701;45.588;5.288;2023-04-01T17:02:37;1.35;;;0.10;;
32200;SDS011;18701;45.588;5.288;2023-04-01T17:05:13;5.15;;;0.20;;
32200;SDS011;18701;45.588;5.288;2023-04-01T17:13:37;0.90;;;0.10;;
32200;SDS011;18701;45.588;5.288;2023-04-01T17:16:12;3.42;;;0.35;;
32200;SDS011;18701;45.588;5.288;2023-04-01T17:22:04;1.80;;;0.40;;
32200;SDS011;18701;45.588;5.288;2023-04-01T17:24:48;1.92;;;0.75;;
32200;SDS011;18701;45.588;5.288;2023-04-01T17:35:35;3.75;;;0.50;;
32200;SDS011;18701;45.588;5.288;2023-04-01T17:45:43;1.52;;;0.60;;
32200;SDS011;18701;45.588;5.288;2023-04-01T17:48:34;2.03;;;0.80;;
32200;SDS011;18701;45.588;5.288;2023-04-01T17:53:43;1.08;;;0.40;;
32200;SDS011;18701;45.588;5.288;2023-04-01T17:56:34;2.25;;;0.30;;
32200;SDS011;18701;45.588;5.288;2023-04-01T17:59:28;0.85;;;0.35;;
32200;SDS011;18701;45.588;5.288;2023-04-01T18:10:20;3.85;;;0.50;;
32200;SDS011;18701;45.588;5.288;2023-04-01T18:26:38;3.00;;;0.63;;
32200;SDS011;18701;45.588;5.288;2023-04-01T18:29:18;3.25;;;0.40;;
32200;SDS011;18701;45.588;5.288;2023-04-01T18:38:06;2.22;;;0.65;;
32200;SDS011;18701;45.588;5.288;2023-04-01T18:41:07;1.63;;;0.57;;
32200;SDS011;18701;45.588;5.288;2023-04-01T18:44:04;1.58;;;0.40;;
32200;SDS011;18701;45.588;5.288;2023-04-01T18:49:29;3.63;;;0.52;;
32200;SDS011;18701;45.588;5.288;2023-04-01T18:52:19;2.13;;;0.63;;
32200;SDS011;18701;45.588;5.288;2023-04-01T19:00:25;1.77;;;0.63;;
32200;SDS011;18701;45.588;5.288;2023-04-01T19:05:42;3.17;;;0.90;;
32200;SDS011;18701;45.588;5.288;2023-04-01T19:17:02;1.95;;;1.13;;
32200;SDS011;18701;45.588;5.288;2023-04-01T19:20:03;7.47;;;3.42;;
32200;SDS011;18701;45.588;5.288;2023-04-01T19:25:23;4.30;;;1.67;;
32200;SDS011;18701;45.588;5.288;2023-04-01T19:37:05;4.20;;;1.05;;
32200;SDS011;18701;45.588;5.288;2023-04-01T19:42:25;4.22;;;1.42;;
32200;SDS011;18701;45.588;5.288;2023-04-01T19:47:39;3.30;;;1.25;;
32200;SDS011;18701;45.588;5.288;2023-04-01T19:50:25;1.63;;;0.77;;
32200;SDS011;18701;45.588;5.288;2023-04-01T19:53:47;3.15;;;1.77;;
32200;SDS011;18701;45.588;5.288;2023-04-01T20:01:05;3.20;;;1.55;;
32200;SDS011;18701;45.588;5.288;2023-04-01T20:09:11;3.53;;;1.48;;
32200;SDS011;18701;45.588;5.288;2023-04-01T20:15:04;4.55;;;1.70;;
32200;SDS011;18701;45.588;5.288;2023-04-01T20:17:50;3.53;;;1.83;;
32200;SDS011;18701;45.588;5.288;2023-04-01T20:20:19;4.63;;;1.45;;
32200;SDS011;18701;45.588;5.288;2023-04-01T20:23:02;3.50;;;1.70;;
32200;SDS011;18701;45.588;5.288;2023-04-01T20:25:31;2.63;;;1.27;;
32200;SDS011;18701;45.588;5.288;2023-04-01T20:33:48;2.70;;;0.77;;
32200;SDS011;18701;45.588;5.288;2023-04-01T20:36:38;1.95;;;0.95;;
32200;SDS011;18701;45.588;5.288;2023-04-01T20:45:17;2.42;;;0.75;;
32200;SDS011;18701;45.588;5.288;2023-04-01T20:51:12;4.60;;;1.20;;
32200;SDS011;18701;45.588;5.288;2023-04-01T20:59:23;3.05;;;1.50;;
32200;SDS011;18701;45.588;5.288;2023-04-01T21:04:27;2.33;;;1.33;;
32200;SDS011;18701;45.588;5.288;2023-04-01T21:07:23;2.67;;;1.60;;
32200;SDS011;18701;45.588;5.288;2023-04-01T21:10:16;2.20;;;1.88;;
32200;SDS011;18701;45.588;5.288;2023-04-01T21:15:46;3.17;;;1.35;;
32200;SDS011;18701;45.588;5.288;2023-04-01T21:21:25;2.90;;;1.92;;
32200;SDS011;18701;45.588;5.288;2023-04-01T21:24:23;3.13;;;1.75;;
32200;SDS011;18701;45.588;5.288;2023-04-01T21:32:41;5.38;;;2.50;;
32200;SDS011;18701;45.588;5.288;2023-04-01T21:40:56;3.88;;;1.88;;
32200;SDS011;18701;45.588;5.288;2023-04-01T22:00:52;4.30;;;2.65;;
32200;SDS011;18701;45.588;5.288;2023-04-01T22:09:08;2.80;;;2.03;;
32200;SDS011;18701;45.588;5.288;2023-04-01T22:11:50;3.35;;;2.13;;
32200;SDS011;18701;45.588;5.288;2023-04-01T22:14:43;4.95;;;2.33;;
32200;SDS011;18701;45.588;5.288;2023-04-01T22:19:59;4.95;;;2.47;;
32200;SDS011;18701;45.588;5.288;2023-04-01T22:23:09;4.47;;;2.50;;
32200;SDS011;18701;45.588;5.288;2023-04-01T22:28:47;4.15;;;2.65;;
32200;SDS011;18701;45.588;5.288;2023-04-01T22:31:26;7.43;;;2.90;;
32200;SDS011;18701;45.588;5.288;2023-04-01T22:33:58;4.05;;;2.85;;
32200;SDS011;18701;45.588;5.288;2023-04-01T22:42:23;4.03;;;2.28;;
32200;SDS011;18701;45.588;5.288;2023-04-01T22:45:47;3.53;;;1.70;;
32200;SDS011;18701;45.588;5.288;2023-04-01T22:47:57;2.67;;;1.25;;
32200;SDS011;18701;45.588;5.288;2023-04-01T22:53:26;2.00;;;1.67;;
32200;SDS011;18701;45.588;5.288;2023-04-01T22:55:52;3.38;;;2.00;;
32200;SDS011;18701;45.588;5.288;2023-04-01T22:58:31;4.18;;;2.15;;
32200;SDS011;18701;45.588;5.288;2023-04-01T23:01:01;3.05;;;1.88;;
32200;SDS011;18701;45.588;5.288;2023-04-01T23:03:33;3.15;;;2.00;;
32200;SDS011;18701;45.588;5.288;2023-04-01T23:06:05;3.42;;;2.25;;
32200;SDS011;18701;45.588;5.288;2023-04-01T23:11:15;2.88;;;2.10;;
32200;SDS011;18701;45.588;5.288;2023-04-01T23:16:39;5.10;;;1.73;;
32200;SDS011;18701;45.588;5.288;2023-04-01T23:19:15;3.47;;;2.25;;
32200;SDS011;18701;45.588;5.288;2023-04-01T23:21:46;2.80;;;1.70;;
32200;SDS011;18701;45.588;5.288;2023-04-01T23:24:20;3.63;;;2.25;;
32200;SDS011;18701;45.588;5.288;2023-04-01T23:27:03;5.78;;;2.45;;
32200;SDS011;18701;45.588;5.288;2023-04-01T23:29:36;3.85;;;2.45;;
32200;SDS011;18701;45.588;5.288;2023-04-01T23:32:05;5.57;;;2.70;;
32200;SDS011;18701;45.588;5.288;2023-04-01T23:34:40;4.70;;;3.50;;
32200;SDS011;18701;45.588;5.288;2023-04-01T23:37:16;6.50;;;3.80;;
32200;SDS011;18701;45.588;5.288;2023-04-01T23:39:51;5.80;;;4.05;;
32200;SDS011;18701;45.588;5.288;2023-04-01T23:44:48;5.85;;;4.70;;
32200;SDS011;18701;45.588;5.288;2023-04-01T23:47:20;5.63;;;5.00;;
32200;SDS011;18701;45.588;5.288;2023-04-01T23:49:52;5.88;;;4.75;;
32200;SDS011;18701;45.588;5.288;2023-04-01T23:57:31;7.22;;;5.72;;
